Time,TemperatureF,DewpointF,PressureIn,WindDirection,WindDirectionDegrees,WindSpeedMPH,WindSpeedGustMPH,Humidity,HourlyPrecipIn,Conditions,Clouds,dailyrainin,SoftwareType,DateUTC
2013-07-22 00:02:00,66.1,64.3,29.38,ESE,115,0.0,0.0,94,0.00,,,0.00,Wunderground v.1.15,2013-07-22 05:02:00,
2013-07-22 00:07:00,66.2,64.4,29.37,ESE,118,0.0,0.0,94,0.00,,,0.00,Wunderground v.1.15,2013-07-22 05:07:00,
2013-07-22 00:12:00,66.2,64.4,29.37,ESE,118,0.0,0.0,94,0.00,,,0.00,Wunderground v.1.15,2013-07-22 05:12:00,
2013-07-22 00:17:00,66.1,64.3,29.37,ESE,118,0.0,0.0,94,0.00,,,0.00,Wunderground v.1.15,2013-07-22 05:17:00,
2013-07-22 00:23:00,66.0,64.2,29.37,ESE,118,0.0,0.0,94,0.00,,,0.00,Wunderground v.1.15,2013-07-22 05:23:00,
2013-07-22 00:28:00,65.7,63.9,29.37,ESE,118,0.0,0.0,94,0.00,,,0.00,Wunderground v.1.15,2013-07-22 05:28:00,
2013-07-22 00:34:00,65.6,63.8,29.36,ESE,118,0.0,0.0,94,0.00,,,0.00,Wunderground v.1.15,2013-07-22 05:34:00,
2013-07-22 00:39:00,65.6,63.8,29.37,ESE,118,0.0,0.0,94,0.00,,,0.00,Wunderground v.1.15,2013-07-22 05:39:00,
2013-07-22 00:44:00,65.7,63.9,29.37,ESE,118,0.0,0.0,94,0.00,,,0.00,Wunderground v.1.15,2013-07-22 05:44:00,
2013-07-22 00:50:00,65.9,64.4,29.38,ESE,118,0.0,0.0,95,0.00,,,0.00,Wunderground v.1.15,2013-07-22 05:50:00,
2013-07-22 00:55:00,66.0,64.5,29.37,ESE,118,0.0,0.0,95,0.00,,,0.00,Wunderground v.1.15,2013-07-22 05:55:00,
2013-07-22 01:00:00,66.3,64.8,29.37,ESE,118,0.0,0.0,95,0.00,,,0.00,Wunderground v.1.15,2013-07-22 06:00:00,
2013-07-22 01:06:00,66.6,65.1,29.36,ESE,118,0.0,0.0,95,0.00,,,0.00,Wunderground v.1.15,2013-07-22 06:06:00,
2013-07-22 01:12:00,66.8,65.3,29.36,ESE,118,0.0,0.0,95,0.00,,,0.00,Wunderground v.1.15,2013-07-22 06:12:00,
2013-07-22 01:17:00,67.0,65.5,29.36,ESE,118,0.0,0.0,95,0.00,,,0.00,Wunderground v.1.15,2013-07-22 06:17:00,
2013-07-22 01:23:00,67.3,65.8,29.36,ESE,118,0.0,0.0,95,0.00,,,0.00,Wunderground v.1.15,2013-07-22 06:23:00,
2013-07-22 01:28:00,67.4,65.9,29.36,ESE,118,0.0,0.0,95,0.00,,,0.00,Wunderground v.1.15,2013-07-22 06:28:00,
2013-07-22 01:33:00,67.5,66.0,29.36,ESE,118,0.0,0.0,95,0.00,,,0.00,Wunderground v.1.15,2013-07-22 06:33:00,
2013-07-22 01:39:00,67.4,65.9,29.36,ESE,118,0.0,0.0,95,0.00,,,0.00,Wunderground v.1.15,2013-07-22 06:39:00,
2013-07-22 01:44:00,67.3,65.8,29.36,ESE,115,0.0,0.0,95,0.00,,,0.00,Wunderground v.1.15,2013-07-22 06:44:00,
2013-07-22 01:50:00,67.2,65.7,29.35,ESE,118,0.0,0.0,95,0.00,,,0.00,Wunderground v.1.15,2013-07-22 06:50:00,
2013-07-22 01:55:00,67.2,65.7,29.35,ESE,118,0.0,0.0,95,0.00,,,0.00,Wunderground v.1.15,2013-07-22 06:55:00,
2013-07-22 02:00:00,67.1,65.6,29.35,ESE,118,0.0,0.0,95,0.00,,,0.00,Wunderground v.1.15,2013-07-22 07:00:00,
2013-07-22 02:05:00,-999.9,-99.9,29.35,ESE,118,0.0,0.0,95,0.00,,,0.00,Wunderground v.1.15,2013-07-22 07:05:00,
2013-07-22 02:10:00,67.0,65.5,29.35,ESE,118,0.0,0.0,95,0.00,,,0.00,Wunderground v.1.15,2013-07-22 07:10:00,
2013-07-22 02:15:00,66.9,65.4,29.35,ESE,118,0.0,0.0,95,0.00,,,0.00,Wunderground v.1.15,2013-07-22 07:15:00,
2013-07-22 02:20:00,66.8,65.0,29.35,ESE,118,0.0,0.0,94,0.00,,,0.00,Wunderground v.1.15,2013-07-22 07:20:00,
2013-07-22 02:25:00,66.7,64.9,29.35,ESE,118,0.0,0.0,94,0.00,,,0.00,Wunderground v.1.15,2013-07-22 07:25:00,
2013-07-22 02:30:00,66.8,65.0,29.35,ESE,118,0.0,0.0,94,0.00,,,0.00,Wunderground v.1.15,2013-07-22 07:30:00,
2013-07-22 02:35:00,66.5,64.7,29.35,ESE,118,0.0,0.0,94,0.00,,,0.00,Wunderground v.1.15,2013-07-22 07:35:00,
2013-07-22 02:40:00,66.3,64.8,29.35,ESE,118,0.0,0.0,95,0.00,,,0.00,Wunderground v.1.15,2013-07-22 07:40:00,
2013-07-22 02:45:00,66.2,64.7,29.35,ESE,118,0.0,0.0,95,0.00,,,0.00,Wunderground v.1.15,2013-07-22 07:45:00,
2013-07-22 02:50:00,66.1,64.6,29.34,ESE,118,0.0,0.0,95,0.00,,,0.00,Wunderground v.1.15,2013-07-22 07:50:00,
2013-07-22 02:55:00,65.9,64.1,29.34,ESE,118,0.0,0.0,94,0.00,,,0.00,Wunderground v.1.15,2013-07-22 07:55:00,
2013-07-22 03:00:00,65.8,64.0,29.34,ESE,118,0.0,0.0,94,0.00,,,0.00,Wunderground v.1.15,2013-07-22 08:00:00,
2013-07-22 03:05:00,65.8,64.0,29.34,ESE,118,0.0,0.0,94,0.00,,,0.00,Wunderground v.1.15,2013-07-22 08:05:00,
2013-07-22 03:10:00,65.7,64.2,29.33,ESE,118,0.0,0.0,95,0.00,,,0.00,Wunderground v.1.15,2013-07-22 08:10:00,
2013-07-22 03:15:00,65.6,64.1,29.33,ESE,118,0.0,0.0,95,0.00,,,0.00,Wunderground v.1.15,2013-07-22 08:15:00,
2013-07-22 03:20:00,65.6,64.1,29.33,ESE,119,0.0,0.0,95,0.00,,,0.00,Wunderground v.1.15,2013-07-22 08:20:00,
2013-07-22 03:25:00,65.6,64.1,29.33,ESE,118,0.0,0.0,95,0.00,,,0.00,Wunderground v.1.15,2013-07-22 08:25:00,
2013-07-22 03:30:00,65.6,64.1,29.33,ESE,118,0.0,0.0,95,0.00,,,0.00,Wunderground v.1.15,2013-07-22 08:30:00,
2013-07-22 03:35:00,65.7,64.2,29.33,ESE,118,0.0,0.0,95,0.00,,,0.00,Wunderground v.1.15,2013-07-22 08:35:00,
2013-07-22 03:40:00,65.7,64.2,29.32,ESE,118,0.0,0.0,95,0.00,,,0.00,Wunderground v.1.15,2013-07-22 08:40:00,
2013-07-22 03:45:00,65.7,64.2,29.32,ESE,118,0.0,0.0,95,0.00,,,0.00,Wunderground v.1.15,2013-07-22 08:45:00,
2013-07-22 03:50:00,65.8,64.3,29.32,ESE,118,0.0,0.0,95,0.00,,,0.00,Wunderground v.1.15,2013-07-22 08:50:00,
2013-07-22 03:55:00,65.9,64.4,29.32,ESE,118,0.0,0.0,95,0.00,,,0.00,Wunderground v.1.15,2013-07-22 08:55:00,
2013-07-22 04:00:00,65.9,64.4,29.32,ESE,118,0.0,0.0,95,0.00,,,0.00,Wunderground v.1.15,2013-07-22 09:00:00,
2013-07-22 04:06:00,66.0,64.5,29.32,ESE,118,0.0,0.0,95,0.00,,,0.00,Wunderground v.1.15,2013-07-22 09:06:00,
2013-07-22 04:11:00,66.2,64.7,29.32,ESE,118,0.0,0.0,95,0.00,,,0.00,Wunderground v.1.15,2013-07-22 09:11:00,
2013-07-22 04:16:00,66.2,64.7,29.32,ESE,118,0.0,0.0,95,0.00,,,0.00,Wunderground v.1.15,2013-07-22 09:16:00,
2013-07-22 04:21:00,66.3,64.8,29.32,ESE,118,0.0,0.0,95,0.00,,,0.00,Wunderground v.1.15,2013-07-22 09:21:00,
2013-07-22 04:26:00,66.3,64.8,29.32,ESE,118,0.0,0.0,95,0.00,,,0.00,Wunderground v.1.15,2013-07-22 09:26:00,
2013-07-22 04:31:00,66.5,65.0,29.32,ESE,119,0.0,0.0,95,0.00,,,0.00,Wunderground v.1.15,2013-07-22 09:31:00,
2013-07-22 04:36:00,66.6,65.1,29.32,ESE,118,0.0,0.0,95,0.00,,,0.00,Wunderground v.1.15,2013-07-22 09:36:00,
2013-07-22 04:41:00,66.7,65.2,29.32,ESE,118,0.0,0.0,95,0.00,,,0.00,Wunderground v.1.15,2013-07-22 09:41:00,
2013-07-22 04:46:00,66.8,65.3,29.32,ESE,118,0.0,0.0,95,0.00,,,0.00,Wunderground v.1.15,2013-07-22 09:46:00,
2013-07-22 04:51:00,67.0,65.8,29.32,ESE,118,0.0,0.0,96,0.00,,,0.00,Wunderground v.1.15,2013-07-22 09:51:00,
2013-07-22 04:56:00,67.2,66.0,29.32,ESE,118,0.0,0.0,96,0.00,,,0.00,Wunderground v.1.15,2013-07-22 09:56:00,
2013-07-22 05:01:00,67.4,66.2,29.32,ESE,118,0.0,0.0,96,0.00,,,0.00,Wunderground v.1.15,2013-07-22 10:01:00,
2013-07-22 05:06:00,67.6,66.4,29.32,ESE,118,0.0,0.0,96,0.00,,,0.00,Wunderground v.1.15,2013-07-22 10:06:00,
2013-07-22 05:11:00,67.7,66.5,29.33,ESE,118,0.0,0.0,96,0.00,,,0.00,Wunderground v.1.15,2013-07-22 10:11:00,
2013-07-22 05:16:00,67.9,66.7,29.33,ESE,118,0.0,0.0,96,0.00,,,0.00,Wunderground v.1.15,2013-07-22 10:16:00,
2013-07-22 05:21:00,68.0,66.8,29.33,ESE,118,0.0,0.0,96,0.00,,,0.00,Wunderground v.1.15,2013-07-22 10:21:00,
2013-07-22 05:26:00,68.0,66.8,29.33,ESE,118,0.0,0.0,96,0.00,,,0.00,Wunderground v.1.15,2013-07-22 10:26:00,
2013-07-22 05:31:00,68.0,66.5,29.33,ESE,118,0.0,0.0,95,0.00,,,0.00,Wunderground v.1.15,2013-07-22 10:31:00,
2013-07-22 05:36:00,68.0,66.5,29.33,ESE,118,0.0,0.0,95,0.00,,,0.00,Wunderground v.1.15,2013-07-22 10:36:00,
2013-07-22 05:41:00,67.9,66.4,29.34,ESE,118,0.0,0.0,95,0.00,,,0.00,Wunderground v.1.15,2013-07-22 10:41:00,
2013-07-22 05:46:00,67.8,66.3,29.34,ESE,118,0.0,0.0,95,0.00,,,0.00,Wunderground v.1.15,2013-07-22 10:46:00,
2013-07-22 05:51:00,67.7,66.2,29.34,ESE,118,0.0,0.0,95,0.00,,,0.00,Wunderground v.1.15,2013-07-22 10:51:00,
2013-07-22 05:56:00,67.6,66.1,29.34,ESE,118,0.0,0.0,95,0.00,,,0.00,Wunderground v.1.15,2013-07-22 10:56:00,
2013-07-22 06:01:00,67.5,66.0,29.34,ESE,118,0.0,0.0,95,0.00,,,0.00,Wunderground v.1.15,2013-07-22 11:01:00,
2013-07-22 06:06:00,67.4,65.9,29.34,ESE,118,0.0,0.0,95,0.00,,,0.00,Wunderground v.1.15,2013-07-22 11:06:00,
2013-07-22 06:11:00,67.4,65.9,29.35,ESE,118,0.0,0.0,95,0.00,,,0.00,Wunderground v.1.15,2013-07-22 11:11:00,
2013-07-22 06:16:00,67.4,65.9,29.35,ESE,118,0.0,0.0,95,0.00,,,0.00,Wunderground v.1.15,2013-07-22 11:16:00,
2013-07-22 06:21:00,67.3,65.8,29.35,ESE,118,0.0,0.0,95,0.00,,,0.00,Wunderground v.1.15,2013-07-22 11:21:00,
2013-07-22 06:26:00,67.3,65.8,29.35,ESE,118,0.0,0.0,95,0.00,,,0.00,Wunderground v.1.15,2013-07-22 11:26:00,
2013-07-22 06:31:00,67.3,65.8,29.35,ESE,118,0.0,0.0,95,0.00,,,0.00,Wunderground v.1.15,2013-07-22 11:31:00,
2013-07-22 06:36:00,67.5,66.0,29.35,ESE,118,0.0,0.0,95,0.00,,,0.00,Wunderground v.1.15,2013-07-22 11:36:00,
2013-07-22 06:41:00,67.7,66.5,29.35,ESE,118,0.0,0.0,96,0.00,,,0.00,Wunderground v.1.15,2013-07-22 11:41:00,
2013-07-22 06:46:00,67.8,66.6,29.35,ESE,118,0.0,0.0,96,0.00,,,0.00,Wunderground v.1.15,2013-07-22 11:46:00,
2013-07-22 06:51:00,68.0,66.8,29.35,ESE,118,0.0,0.0,96,0.00,,,0.00,Wunderground v.1.15,2013-07-22 11:51:00,
2013-07-22 06:57:00,68.4,67.2,29.36,ESE,118,0.0,0.0,96,0.00,,,0.00,Wunderground v.1.15,2013-07-22 11:57:00,
2013-07-22 07:02:00,68.6,67.4,29.36,ESE,118,2.0,5.0,96,0.00,,,0.00,Wunderground v.1.15,2013-07-22 12:02:00,
2013-07-22 07:07:00,68.7,67.5,29.36,ESE,118,0.0,5.0,96,0.00,,,0.00,Wunderground v.1.15,2013-07-22 12:07:00,
2013-07-22 07:12:00,68.9,67.7,29.36,ESE,118,0.0,0.0,96,0.00,,,0.00,Wunderground v.1.15,2013-07-22 12:12:00,
2013-07-22 07:17:00,69.0,67.8,29.36,ESE,118,0.0,2.0,96,0.00,,,0.00,Wunderground v.1.15,2013-07-22 12:17:00,
2013-07-22 07:22:00,69.0,67.8,29.35,ESE,118,0.0,0.0,96,0.00,,,0.00,Wunderground v.1.15,2013-07-22 12:22:00,
2013-07-22 07:27:00,69.2,68.0,29.35,ESE,118,0.0,0.0,96,0.00,,,0.00,Wunderground v.1.15,2013-07-22 12:27:00,
2013-07-22 07:32:00,69.3,67.8,29.36,ESE,118,0.0,0.0,95,0.00,,,0.00,Wunderground v.1.15,2013-07-22 12:32:00,
2013-07-22 07:37:00,69.3,68.1,29.36,ESE,118,0.0,0.0,96,0.00,,,0.00,Wunderground v.1.15,2013-07-22 12:37:00,
2013-07-22 07:42:00,69.4,68.2,29.36,ESE,118,0.0,0.0,96,0.00,,,0.00,Wunderground v.1.15,2013-07-22 12:42:00,
2013-07-22 07:47:00,69.6,68.4,29.36,ESE,118,0.0,0.0,96,0.00,,,0.00,Wunderground v.1.15,2013-07-22 12:47:00,
2013-07-22 07:52:00,69.8,68.6,29.36,ESE,119,0.0,0.0,96,0.00,,,0.00,Wunderground v.1.15,2013-07-22 12:52:00,
2013-07-22 07:57:00,69.9,68.7,29.36,ESE,118,2.0,4.0,96,0.00,,,0.00,Wunderground v.1.15,2013-07-22 12:57:00,
2013-07-22 08:02:00,70.1,68.9,29.36,ESE,118,4.0,5.0,96,0.00,,,0.00,Wunderground v.1.15,2013-07-22 13:02:00,
2013-07-22 08:07:00,70.2,69.0,29.36,ESE,118,0.0,5.0,96,0.00,,,0.00,Wunderground v.1.15,2013-07-22 13:07:00,
2013-07-22 08:12:00,70.3,69.1,29.36,ESE,118,0.0,4.0,96,0.00,,,0.00,Wunderground v.1.15,2013-07-22 13:12:00,
2013-07-22 08:17:00,70.3,69.1,29.36,ESE,118,0.0,6.0,96,0.00,,,0.00,Wunderground v.1.15,2013-07-22 13:17:00,
2013-07-22 08:22:00,70.5,69.3,29.36,ESE,118,0.0,1.0,96,0.00,,,0.00,Wunderground v.1.15,2013-07-22 13:22:00,
2013-07-22 08:27:00,70.6,69.4,29.36,ESE,119,1.0,6.0,96,0.00,,,0.00,Wunderground v.1.15,2013-07-22 13:27:00,
2013-07-22 08:32:00,70.6,69.4,29.36,ESE,118,0.0,1.0,96,0.00,,,0.00,Wunderground v.1.15,2013-07-22 13:32:00,
2013-07-22 08:37:00,70.8,69.6,29.36,ESE,118,2.0,7.0,96,0.00,,,0.00,Wunderground v.1.15,2013-07-22 13:37:00,
2013-07-22 08:42:00,70.6,69.4,29.36,ESE,118,0.0,1.0,96,0.00,,,0.00,Wunderground v.1.15,2013-07-22 13:42:00,
2013-07-22 08:47:00,70.8,69.6,29.36,ESE,118,1.0,5.0,96,0.00,,,0.00,Wunderground v.1.15,2013-07-22 13:47:00,
2013-07-22 08:52:00,70.8,69.3,29.36,ESE,119,0.0,5.0,95,0.00,,,0.00,Wunderground v.1.15,2013-07-22 13:52:00,
2013-07-22 08:57:00,70.8,69.3,29.36,ESE,118,0.0,7.0,95,0.00,,,0.00,Wunderground v.1.15,2013-07-22 13:57:00,
2013-07-22 09:02:00,71.2,70.0,29.36,ESE,118,0.0,1.0,96,0.00,,,0.00,Wunderground v.1.15,2013-07-22 14:02:00,
2013-07-22 09:07:00,71.5,70.0,29.36,ESE,118,0.0,6.0,95,0.00,,,0.00,Wunderground v.1.15,2013-07-22 14:07:00,
2013-07-22 09:12:00,71.5,70.0,29.36,ESE,118,0.0,0.0,95,0.00,,,0.00,Wunderground v.1.15,2013-07-22 14:12:00,
2013-07-22 09:17:00,71.9,70.4,29.36,ESE,118,0.0,1.0,95,0.00,,,0.00,Wunderground v.1.15,2013-07-22 14:17:00,
2013-07-22 09:22:00,72.5,71.0,29.36,ESE,118,0.0,1.0,95,0.00,,,0.00,Wunderground v.1.15,2013-07-22 14:22:00,
2013-07-22 09:27:00,72.5,71.0,29.36,ESE,119,6.0,6.0,95,0.00,,,0.00,Wunderground v.1.15,2013-07-22 14:27:00,
2013-07-22 09:32:00,72.6,70.8,29.36,ESE,119,1.0,7.0,94,0.00,,,0.00,Wunderground v.1.15,2013-07-22 14:32:00,
2013-07-22 09:37:00,72.6,70.5,29.36,ESE,119,0.0,7.0,93,0.00,,,0.00,Wunderground v.1.15,2013-07-22 14:37:00,
2013-07-22 09:42:00,73.0,70.9,29.37,ESE,118,5.0,6.0,93,0.00,,,0.00,Wunderground v.1.15,2013-07-22 14:42:00,
2013-07-22 09:47:00,73.0,70.2,29.37,ESE,118,0.0,11.0,91,0.00,,,0.00,Wunderground v.1.15,2013-07-22 14:47:00,
2013-07-22 09:52:00,73.2,70.7,29.38,ESE,118,0.0,6.0,92,0.00,,,0.00,Wunderground v.1.15,2013-07-22 14:52:00,
2013-07-22 09:57:00,73.3,70.5,29.38,ESE,119,0.0,8.0,91,0.00,,,0.00,Wunderground v.1.15,2013-07-22 14:57:00,
2013-07-22 10:02:00,73.3,70.5,29.38,ESE,119,0.0,6.0,91,0.00,,,0.00,Wunderground v.1.15,2013-07-22 15:02:00,
2013-07-22 10:07:00,73.7,70.9,29.38,ESE,119,0.0,6.0,91,0.00,,,0.00,Wunderground v.1.15,2013-07-22 15:07:00,
2013-07-22 10:12:00,74.1,71.3,29.38,ESE,119,0.0,6.0,91,0.00,,,0.00,Wunderground v.1.15,2013-07-22 15:12:00,
2013-07-22 10:17:00,74.4,70.9,29.37,ESE,119,0.0,6.0,89,0.00,,,0.00,Wunderground v.1.15,2013-07-22 15:17:00,
2013-07-22 10:22:00,74.9,71.8,29.37,ESE,119,0.0,0.0,90,0.00,,,0.00,Wunderground v.1.15,2013-07-22 15:22:00,
2013-07-22 10:27:00,75.3,71.5,29.38,ESE,119,0.0,5.0,88,0.00,,,0.00,Wunderground v.1.15,2013-07-22 15:27:00,
2013-07-22 10:32:00,75.9,72.1,29.38,ESE,119,0.0,5.0,88,0.00,,,0.00,Wunderground v.1.15,2013-07-22 15:32:00,
2013-07-22 10:37:00,76.5,72.0,29.38,ESE,119,0.0,5.0,86,0.00,,,0.00,Wunderground v.1.15,2013-07-22 15:37:00,
2013-07-22 10:43:00,76.8,71.9,29.37,ESE,119,0.0,0.0,85,0.00,,,0.00,Wunderground v.1.15,2013-07-22 15:43:00,
2013-07-22 10:48:00,-999.9,-99.9,29.37,ESE,119,0.0,0.0,83,0.00,,,0.00,Wunderground v.1.15,2013-07-22 15:48:00,
2013-07-22 10:53:00,77.3,72.4,29.37,ESE,119,0.0,4.0,85,0.00,,,0.00,Wunderground v.1.15,2013-07-22 15:53:00,
2013-07-22 10:58:00,77.7,72.5,29.37,ESE,119,0.0,4.0,84,0.00,,,0.00,Wunderground v.1.15,2013-07-22 15:58:00,
2013-07-22 11:03:00,78.5,72.9,29.37,ESE,119,0.0,1.0,83,0.00,,,0.00,Wunderground v.1.15,2013-07-22 16:03:00,
2013-07-22 11:08:00,79.3,72.6,29.37,ESE,119,0.0,5.0,80,0.00,,,0.00,Wunderground v.1.15,2013-07-22 16:08:00,
2013-07-22 11:13:00,80.0,73.3,29.36,ESE,119,0.0,1.0,80,0.00,,,0.00,Wunderground v.1.15,2013-07-22 16:13:00,
2013-07-22 11:18:00,80.2,73.8,29.37,ESE,119,0.0,4.0,81,0.00,,,0.00,Wunderground v.1.15,2013-07-22 16:18:00,
2013-07-22 11:23:00,80.5,73.8,29.36,ESE,119,0.0,6.0,80,0.00,,,0.00,Wunderground v.1.15,2013-07-22 16:23:00,
2013-07-22 11:28:00,80.8,73.3,29.36,ESE,119,0.0,6.0,78,0.00,,,0.00,Wunderground v.1.15,2013-07-22 16:28:00,
2013-07-22 11:33:00,81.4,73.9,29.36,ESE,119,0.0,5.0,78,0.00,,,0.00,Wunderground v.1.15,2013-07-22 16:33:00,
2013-07-22 11:38:00,81.6,74.8,29.35,ESE,119,0.0,6.0,80,0.00,,,0.00,Wunderground v.1.15,2013-07-22 16:38:00,
2013-07-22 11:43:00,-999.9,-99.9,29.35,ESE,119,0.0,4.0,76,0.00,,,0.00,Wunderground v.1.15,2013-07-22 16:43:00,
2013-07-22 11:48:00,82.1,73.8,29.35,ESE,119,0.0,6.0,76,0.00,,,0.00,Wunderground v.1.15,2013-07-22 16:48:00,
2013-07-22 11:53:00,82.2,73.9,29.36,ESE,119,1.0,1.0,76,0.00,,,0.00,Wunderground v.1.15,2013-07-22 16:53:00,
2013-07-22 11:58:00,82.4,74.5,29.35,ESE,119,0.0,5.0,77,0.00,,,0.00,Wunderground v.1.15,2013-07-22 16:58:00,
2013-07-22 12:03:00,83.5,75.5,29.35,ESE,118,0.0,0.0,77,0.00,,,0.00,Wunderground v.1.15,2013-07-22 17:03:00,
2013-07-22 12:08:00,82.6,73.5,29.35,ESE,118,0.0,4.0,74,0.00,,,0.00,Wunderground v.1.15,2013-07-22 17:08:00,
2013-07-22 12:13:00,82.5,73.4,29.35,ESE,119,1.0,1.0,74,0.00,,,0.00,Wunderground v.1.15,2013-07-22 17:13:00,
2013-07-22 12:18:00,82.6,73.5,29.35,ESE,119,0.0,4.0,74,0.00,,,0.00,Wunderground v.1.15,2013-07-22 17:18:00,
2013-07-22 12:23:00,82.7,74.0,29.34,ESE,119,0.0,4.0,75,0.00,,,0.00,Wunderground v.1.15,2013-07-22 17:23:00,
2013-07-22 12:28:00,83.0,73.4,29.34,ESE,118,0.0,6.0,73,0.00,,,0.00,Wunderground v.1.15,2013-07-22 17:28:00,
2013-07-22 12:33:00,82.9,73.4,29.34,ESE,119,0.0,6.0,73,0.00,,,0.00,Wunderground v.1.15,2013-07-22 17:33:00,
2013-07-22 12:38:00,83.1,74.4,29.34,ESE,119,6.0,7.0,75,0.00,,,0.00,Wunderground v.1.15,2013-07-22 17:38:00,
2013-07-22 12:43:00,83.5,74.3,29.34,ESE,119,0.0,1.0,74,0.00,,,0.00,Wunderground v.1.15,2013-07-22 17:43:00,
2013-07-22 12:48:00,83.9,74.3,29.34,ESE,119,0.0,6.0,73,0.00,,,0.00,Wunderground v.1.15,2013-07-22 17:48:00,
2013-07-22 12:53:00,84.3,73.9,29.34,ESE,118,1.0,2.0,71,0.00,,,0.00,Wunderground v.1.15,2013-07-22 17:53:00,
2013-07-22 12:58:00,84.7,74.3,29.34,ESE,119,0.0,9.0,71,0.00,,,0.00,Wunderground v.1.15,2013-07-22 17:58:00,
2013-07-22 13:03:00,84.8,73.9,29.34,ESE,119,0.0,5.0,70,0.00,,,0.00,Wunderground v.1.15,2013-07-22 18:03:00,
2013-07-22 13:09:00,85.1,73.3,29.34,ESE,119,1.0,8.0,68,0.00,,,0.00,Wunderground v.1.15,2013-07-22 18:09:00,
2013-07-22 13:14:00,84.9,74.0,29.34,ESE,119,0.0,2.0,70,0.00,,,0.00,Wunderground v.1.15,2013-07-22 18:14:00,
2013-07-22 13:20:00,84.9,74.0,29.34,ESE,119,0.0,0.0,70,0.00,,,0.00,Wunderground v.1.15,2013-07-22 18:20:00,
2013-07-22 13:25:00,84.8,74.3,29.34,ESE,118,0.0,1.0,71,0.00,,,0.00,Wunderground v.1.15,2013-07-22 18:25:00,
2013-07-22 13:30:00,84.8,74.3,29.33,ESE,118,0.0,5.0,71,0.00,,,0.00,Wunderground v.1.15,2013-07-22 18:30:00,
2013-07-22 13:36:00,85.0,74.1,29.33,ESE,119,0.0,5.0,70,0.00,,,0.00,Wunderground v.1.15,2013-07-22 18:36:00,
2013-07-22 13:41:00,85.5,73.7,29.33,ESE,118,0.0,6.0,68,0.00,,,0.00,Wunderground v.1.15,2013-07-22 18:41:00,
2013-07-22 13:47:00,85.6,74.3,29.33,ESE,119,0.0,6.0,69,0.00,,,0.00,Wunderground v.1.15,2013-07-22 18:47:00,
2013-07-22 13:52:00,85.6,74.7,29.33,ESE,118,0.0,1.0,70,0.00,,,0.00,Wunderground v.1.15,2013-07-22 18:52:00,
2013-07-22 13:58:00,85.8,73.6,29.32,ESE,118,0.0,1.0,67,0.00,,,0.00,Wunderground v.1.15,2013-07-22 18:58:00,
2013-07-22 14:03:00,86.1,74.3,29.32,ESE,119,6.0,7.0,68,0.00,,,0.00,Wunderground v.1.15,2013-07-22 19:03:00,
2013-07-22 14:08:00,85.9,73.2,29.32,ESE,119,0.0,7.0,66,0.00,,,0.00,Wunderground v.1.15,2013-07-22 19:08:00,
2013-07-22 14:13:00,85.8,-99.9,29.33,ESE,119,0.0,6.0,255,0.00,,,0.00,Wunderground v.1.15,2013-07-22 19:13:00,
2013-07-22 14:18:00,85.9,73.2,29.33,ESE,118,0.0,6.0,66,0.00,,,0.00,Wunderground v.1.15,2013-07-22 19:18:00,
2013-07-22 14:24:00,86.0,73.3,29.33,ESE,118,4.0,11.0,66,0.00,,,0.00,Wunderground v.1.15,2013-07-22 19:24:00,
2013-07-22 14:29:00,86.1,73.9,29.32,ESE,118,6.0,11.0,67,0.00,,,0.00,Wunderground v.1.15,2013-07-22 19:29:00,
2013-07-22 14:34:00,86.6,-99.9,29.32,ESE,119,0.0,4.0,255,0.00,,,0.00,Wunderground v.1.15,2013-07-22 19:34:00,
2013-07-22 14:39:00,86.4,74.1,29.32,ESE,118,0.0,7.0,67,0.00,,,0.00,Wunderground v.1.15,2013-07-22 19:39:00,
2013-07-22 14:44:00,86.6,73.0,29.32,ESE,118,0.0,9.0,64,0.00,,,0.00,Wunderground v.1.15,2013-07-22 19:44:00,
2013-07-22 14:49:00,86.7,72.1,29.32,ESE,118,0.0,9.0,62,0.00,,,0.00,Wunderground v.1.15,2013-07-22 19:49:00,
2013-07-22 14:54:00,86.6,72.5,29.32,ESE,118,0.0,2.0,63,0.00,,,0.00,Wunderground v.1.15,2013-07-22 19:54:00,
2013-07-22 14:59:00,86.9,72.8,29.32,ESE,118,2.0,12.0,63,0.00,,,0.00,Wunderground v.1.15,2013-07-22 19:59:00,
2013-07-22 15:05:00,-999.9,-99.9,29.32,ESE,119,0.0,8.0,62,0.00,,,0.00,Wunderground v.1.15,2013-07-22 20:05:00,
2013-07-22 15:10:00,87.4,73.3,29.32,ESE,119,6.0,6.0,63,0.00,,,0.00,Wunderground v.1.15,2013-07-22 20:10:00,
2013-07-22 15:15:00,87.4,73.3,29.32,ESE,119,11.0,12.0,63,0.00,,,0.00,Wunderground v.1.15,2013-07-22 20:15:00,
2013-07-22 15:16:00,87.3,72.7,29.32,ESE,118,5.0,12.0,62,0.00,,,0.00,Wunderground v.1.15,2013-07-22 20:16:00,
2013-07-22 15:17:00,87.3,72.7,29.32,ESE,118,6.0,12.0,62,0.00,,,0.00,Wunderground v.1.15,2013-07-22 20:17:00,
2013-07-22 15:22:00,87.0,72.9,29.32,ESE,119,0.0,9.0,63,0.00,,,0.00,Wunderground v.1.15,2013-07-22 20:22:00,
2013-07-22 15:27:00,86.9,73.3,29.32,ESE,118,4.0,9.0,64,0.00,,,0.00,Wunderground v.1.15,2013-07-22 20:27:00,
2013-07-22 15:32:00,87.2,74.0,29.32,ESE,118,0.0,1.0,65,0.00,,,0.00,Wunderground v.1.15,2013-07-22 20:32:00,
2013-07-22 15:37:00,87.5,73.8,29.32,ESE,118,4.0,6.0,64,0.00,,,0.00,Wunderground v.1.15,2013-07-22 20:37:00,
2013-07-22 15:42:00,87.3,74.1,29.31,ESE,118,4.0,9.0,65,0.00,,,0.00,Wunderground v.1.15,2013-07-22 20:42:00,
2013-07-22 15:43:00,87.2,74.0,29.32,ESE,118,0.0,9.0,65,0.00,,,0.00,Wunderground v.1.15,2013-07-22 20:43:00,
2013-07-22 15:48:00,86.9,74.6,29.32,ESE,118,0.0,9.0,67,0.00,,,0.00,Wunderground v.1.15,2013-07-22 20:48:00,
2013-07-22 15:53:00,86.9,74.2,29.32,ESE,118,5.0,6.0,66,0.00,,,0.00,Wunderground v.1.15,2013-07-22 20:53:00,
2013-07-22 15:58:00,87.0,73.3,29.32,SE,132,2.0,15.0,64,0.00,,,0.00,Wunderground v.1.15,2013-07-22 20:58:00,
2013-07-22 16:03:00,86.9,73.7,29.32,SE,132,0.0,8.0,65,0.00,,,0.00,Wunderground v.1.15,2013-07-22 21:03:00,
2013-07-22 16:08:00,87.3,74.1,29.31,SE,134,0.0,8.0,65,0.00,,,0.00,Wunderground v.1.15,2013-07-22 21:08:00,
2013-07-22 16:13:00,87.5,73.8,29.31,SE,134,1.0,11.0,64,0.00,,,0.00,Wunderground v.1.15,2013-07-22 21:13:00,
2013-07-22 16:18:00,87.4,73.7,29.31,SE,136,1.0,11.0,64,0.00,,,0.00,Wunderground v.1.15,2013-07-22 21:18:00,
2013-07-22 16:23:00,87.5,74.3,29.31,SE,139,2.0,7.0,65,0.00,,,0.00,Wunderground v.1.15,2013-07-22 21:23:00,
2013-07-22 16:28:00,87.9,73.7,29.30,SE,142,8.0,9.0,63,0.00,,,0.00,Wunderground v.1.15,2013-07-22 21:28:00,
2013-07-22 16:33:00,87.8,73.6,29.30,SSE,147,4.0,10.0,63,0.00,,,0.00,Wunderground v.1.15,2013-07-22 21:33:00,
2013-07-22 16:38:00,87.7,73.5,29.30,SSE,147,0.0,10.0,63,0.00,,,0.00,Wunderground v.1.15,2013-07-22 21:38:00,
2013-07-22 16:43:00,87.4,73.7,29.30,SSE,147,0.0,6.0,64,0.00,,,0.00,Wunderground v.1.15,2013-07-22 21:43:00,
2013-07-22 16:48:00,-999.9,-99.9,29.30,SSE,147,0.0,6.0,64,0.00,,,0.00,Wunderground v.1.15,2013-07-22 21:48:00,
2013-07-22 16:53:00,87.4,73.7,29.30,SSE,147,0.0,2.0,64,0.00,,,0.00,Wunderground v.1.15,2013-07-22 21:53:00,
2013-07-22 16:58:00,87.6,73.0,29.30,SSE,147,6.0,7.0,62,0.00,,,0.00,Wunderground v.1.15,2013-07-22 21:58:00,
2013-07-22 17:03:00,87.7,73.5,29.30,SSE,148,1.0,7.0,63,0.00,,,0.00,Wunderground v.1.15,2013-07-22 22:03:00,
2013-07-22 17:08:00,87.8,73.2,29.30,SSE,148,0.0,8.0,62,0.00,,,0.00,Wunderground v.1.15,2013-07-22 22:08:00,
2013-07-22 17:13:00,87.9,72.8,29.30,SSE,155,7.0,9.0,61,0.00,,,0.00,Wunderground v.1.15,2013-07-22 22:13:00,
2013-07-22 17:18:00,88.1,73.4,29.30,SSE,157,0.0,9.0,62,0.00,,,0.00,Wunderground v.1.15,2013-07-22 22:18:00,
2013-07-22 17:23:00,88.4,73.2,29.30,SSE,157,0.0,2.0,61,0.00,,,0.00,Wunderground v.1.15,2013-07-22 22:23:00,
2013-07-22 17:28:00,89.0,73.3,29.29,SSE,157,0.0,5.0,60,0.00,,,0.00,Wunderground v.1.15,2013-07-22 22:28:00,
2013-07-22 17:33:00,88.8,73.6,29.29,SSE,157,4.0,7.0,61,0.00,,,0.00,Wunderground v.1.15,2013-07-22 22:33:00,
2013-07-22 17:38:00,88.8,73.1,29.29,SSE,157,0.0,7.0,60,0.00,,,0.00,Wunderground v.1.15,2013-07-22 22:38:00,
2013-07-22 17:43:00,88.9,72.7,29.29,SSE,158,0.0,8.0,59,0.00,,,0.00,Wunderground v.1.15,2013-07-22 22:43:00,
2013-07-22 17:48:00,88.8,72.1,29.29,SSE,159,2.0,8.0,58,0.00,,,0.00,Wunderground v.1.15,2013-07-22 22:48:00,
2013-07-22 17:53:00,88.6,72.4,29.29,SSE,159,0.0,2.0,59,0.00,,,0.00,Wunderground v.1.15,2013-07-22 22:53:00,
2013-07-22 17:58:00,88.5,72.3,29.29,SSE,159,0.0,5.0,59,0.00,,,0.00,Wunderground v.1.15,2013-07-22 22:58:00,
2013-07-22 18:03:00,88.4,72.7,29.28,SSE,159,0.0,1.0,60,0.00,,,0.00,Wunderground v.1.15,2013-07-22 23:03:00,
2013-07-22 18:08:00,88.6,72.9,29.28,SSE,159,0.0,4.0,60,0.00,,,0.00,Wunderground v.1.15,2013-07-22 23:08:00,
2013-07-22 18:13:00,88.9,73.2,29.28,SSE,159,0.0,1.0,60,0.00,,,0.00,Wunderground v.1.15,2013-07-22 23:13:00,
2013-07-22 18:18:00,89.0,71.8,29.28,SSE,159,0.0,6.0,57,0.00,,,0.00,Wunderground v.1.15,2013-07-22 23:18:00,
2013-07-22 18:23:00,-999.9,-99.9,29.28,SSE,159,4.0,8.0,255,0.00,,,0.00,Wunderground v.1.15,2013-07-22 23:23:00,
2013-07-22 18:28:00,89.2,72.5,29.28,SSE,159,0.0,8.0,58,0.00,,,0.00,Wunderground v.1.15,2013-07-22 23:28:00,
2013-07-22 18:33:00,-999.9,-99.9,29.28,SSE,159,0.0,1.0,58,0.00,,,0.00,Wunderground v.1.15,2013-07-22 23:33:00,
2013-07-22 18:38:00,89.4,72.7,29.28,SSE,159,0.0,1.0,58,0.00,,,0.00,Wunderground v.1.15,2013-07-22 23:38:00,
2013-07-22 18:43:00,89.6,74.4,29.27,SSE,159,0.0,0.0,61,0.00,,,0.00,Wunderground v.1.15,2013-07-22 23:43:00,
2013-07-22 18:48:00,89.9,73.7,29.27,SSE,159,0.0,1.0,59,0.00,,,0.00,Wunderground v.1.15,2013-07-22 23:48:00,
2013-07-22 18:53:00,89.8,73.0,29.27,SSE,159,0.0,0.0,58,0.00,,,0.00,Wunderground v.1.15,2013-07-22 23:53:00,
2013-07-22 18:58:00,89.7,73.0,29.27,SSE,159,0.0,0.0,58,0.00,,,0.00,Wunderground v.1.15,2013-07-22 23:58:00,
2013-07-22 19:03:00,89.5,74.3,29.27,SSE,159,0.0,0.0,61,0.00,,,0.00,Wunderground v.1.15,2013-07-23 00:03:00,
2013-07-22 19:08:00,89.7,74.0,29.27,SSE,159,0.0,0.0,60,0.00,,,0.00,Wunderground v.1.15,2013-07-23 00:08:00,
2013-07-22 19:13:00,90.1,74.3,29.27,SSE,159,0.0,0.0,60,0.00,,,0.00,Wunderground v.1.15,2013-07-23 00:13:00,
2013-07-22 19:18:00,-999.9,-99.9,29.27,SSE,159,0.0,0.0,59,0.00,,,0.00,Wunderground v.1.15,2013-07-23 00:18:00,
2013-07-22 19:23:00,90.2,-99.9,29.26,SSE,159,0.0,0.0,255,0.00,,,0.00,Wunderground v.1.15,2013-07-23 00:23:00,
2013-07-22 19:28:00,88.8,74.1,29.26,SSE,159,0.0,0.0,62,0.00,,,0.00,Wunderground v.1.15,2013-07-23 00:28:00,
2013-07-22 19:33:00,88.3,74.1,29.26,SSE,159,0.0,0.0,63,0.00,,,0.00,Wunderground v.1.15,2013-07-23 00:33:00,
2013-07-22 19:38:00,87.6,73.9,29.26,SSE,159,0.0,0.0,64,0.00,,,0.00,Wunderground v.1.15,2013-07-23 00:38:00,
2013-07-22 19:43:00,86.8,73.6,29.26,SSE,159,0.0,0.0,65,0.00,,,0.00,Wunderground v.1.15,2013-07-23 00:43:00,
2013-07-22 19:48:00,86.5,73.8,29.26,SSE,159,0.0,0.0,66,0.00,,,0.00,Wunderground v.1.15,2013-07-23 00:48:00,
2013-07-22 19:53:00,86.0,73.8,29.27,SSE,159,0.0,0.0,67,0.00,,,0.00,Wunderground v.1.15,2013-07-23 00:53:00,
2013-07-22 19:58:00,85.5,73.7,29.27,SSE,159,0.0,0.0,68,0.00,,,0.00,Wunderground v.1.15,2013-07-23 00:58:00,
2013-07-22 20:03:00,85.2,73.9,29.27,SSE,159,0.0,0.0,69,0.00,,,0.00,Wunderground v.1.15,2013-07-23 01:03:00,
2013-07-22 20:08:00,-999.9,-99.9,29.28,SSE,159,0.0,0.0,71,0.00,,,0.00,Wunderground v.1.15,2013-07-23 01:08:00,
2013-07-22 20:13:00,-999.9,-99.9,29.28,SSE,159,0.0,0.0,71,0.00,,,0.00,Wunderground v.1.15,2013-07-23 01:13:00,
2013-07-22 20:18:00,84.3,74.7,29.28,SSE,159,0.0,0.0,73,0.00,,,0.00,Wunderground v.1.15,2013-07-23 01:18:00,
2013-07-22 20:23:00,83.8,73.8,29.28,SSE,159,0.0,0.0,72,0.00,,,0.00,Wunderground v.1.15,2013-07-23 01:23:00,
2013-07-22 20:29:00,83.4,73.8,29.28,SSE,159,0.0,0.0,73,0.00,,,0.00,Wunderground v.1.15,2013-07-23 01:29:00,
2013-07-22 20:34:00,82.9,74.2,29.29,SSE,159,0.0,0.0,75,0.00,,,0.00,Wunderground v.1.15,2013-07-23 01:34:00,
2013-07-22 20:39:00,82.6,73.9,29.29,SSE,159,0.0,0.0,75,0.00,,,0.00,Wunderground v.1.15,2013-07-23 01:39:00,
2013-07-22 20:44:00,82.2,73.5,29.29,SSE,159,0.0,0.0,75,0.00,,,0.00,Wunderground v.1.15,2013-07-23 01:44:00,
2013-07-22 20:49:00,81.5,73.2,29.28,SSE,159,0.0,0.0,76,0.00,,,0.00,Wunderground v.1.15,2013-07-23 01:49:00,
2013-07-22 20:54:00,81.0,72.7,29.28,SSE,159,0.0,0.0,76,0.00,,,0.00,Wunderground v.1.15,2013-07-23 01:54:00,
2013-07-22 20:59:00,80.7,72.8,29.28,SSE,159,0.0,0.0,77,0.00,,,0.00,Wunderground v.1.15,2013-07-23 01:59:00,
2013-07-22 21:04:00,80.5,72.6,29.28,SSE,159,0.0,0.0,77,0.00,,,0.00,Wunderground v.1.15,2013-07-23 02:04:00,
2013-07-22 21:09:00,80.3,72.4,29.29,SSE,159,0.0,0.0,77,0.00,,,0.00,Wunderground v.1.15,2013-07-23 02:09:00,
2013-07-22 21:14:00,80.1,72.6,29.29,SSE,158,0.0,0.0,78,0.00,,,0.00,Wunderground v.1.15,2013-07-23 02:14:00,
2013-07-22 21:19:00,-90.0,-99.9,29.29,SSE,159,0.0,0.0,255,0.00,,,0.00,Wunderground v.1.15,2013-07-23 02:19:00,
2013-07-22 21:24:00,80.0,72.5,29.29,SSE,159,0.0,0.0,78,0.00,,,0.00,Wunderground v.1.15,2013-07-23 02:24:00,
2013-07-22 21:29:00,79.8,72.7,29.29,SSE,159,0.0,0.0,79,0.00,,,0.00,Wunderground v.1.15,2013-07-23 02:29:00,
2013-07-22 21:34:00,79.7,72.6,29.30,SSE,159,0.0,0.0,79,0.00,,,0.00,Wunderground v.1.15,2013-07-23 02:34:00,
2013-07-22 21:39:00,79.6,72.5,29.30,SSE,159,0.0,0.0,79,0.00,,,0.00,Wunderground v.1.15,2013-07-23 02:39:00,
2013-07-22 21:44:00,79.4,72.7,29.30,SSE,159,0.0,0.0,80,0.00,,,0.00,Wunderground v.1.15,2013-07-23 02:44:00,
2013-07-22 21:49:00,79.3,72.6,29.30,SSE,159,0.0,0.0,80,0.00,,,0.00,Wunderground v.1.15,2013-07-23 02:49:00,
2013-07-22 21:54:00,79.4,-99.9,29.31,SSE,159,0.0,0.0,255,0.00,,,0.00,Wunderground v.1.15,2013-07-23 02:54:00,
2013-07-22 21:59:00,79.1,72.4,29.31,SSE,159,0.0,0.0,80,0.00,,,0.00,Wunderground v.1.15,2013-07-23 02:59:00,
2013-07-22 22:04:00,79.2,72.5,29.31,SSE,159,0.0,0.0,80,0.00,,,0.00,Wunderground v.1.15,2013-07-23 03:04:00,
2013-07-22 22:09:00,79.0,72.3,29.32,SSE,159,0.0,0.0,80,0.00,,,0.00,Wunderground v.1.15,2013-07-23 03:09:00,
2013-07-22 22:14:00,78.8,72.5,29.32,SSE,159,0.0,0.0,81,0.00,,,0.00,Wunderground v.1.15,2013-07-23 03:14:00,
2013-07-22 22:19:00,78.8,72.5,29.32,SSE,159,0.0,0.0,81,0.00,,,0.00,Wunderground v.1.15,2013-07-23 03:19:00,
2013-07-22 22:24:00,78.7,72.4,29.32,SSE,159,0.0,0.0,81,0.00,,,0.00,Wunderground v.1.15,2013-07-23 03:24:00,
2013-07-22 22:29:00,78.5,72.2,29.32,SSE,159,0.0,0.0,81,0.00,,,0.00,Wunderground v.1.15,2013-07-23 03:29:00,
2013-07-22 22:34:00,78.4,72.4,29.32,SSE,159,0.0,0.0,82,0.00,,,0.00,Wunderground v.1.15,2013-07-23 03:34:00,
2013-07-22 22:39:00,78.3,72.3,29.32,SSE,159,0.0,0.0,82,0.00,,,0.00,Wunderground v.1.15,2013-07-23 03:39:00,
2013-07-22 22:44:00,78.2,72.3,29.33,SSE,159,0.0,0.0,82,0.00,,,0.00,Wunderground v.1.15,2013-07-23 03:44:00,
2013-07-22 22:49:00,78.1,71.8,29.33,SSE,159,0.0,0.0,81,0.00,,,0.00,Wunderground v.1.15,2013-07-23 03:49:00,
2013-07-22 22:54:00,77.9,72.0,29.33,SSE,159,0.0,0.0,82,0.00,,,0.00,Wunderground v.1.15,2013-07-23 03:54:00,
2013-07-22 22:59:00,77.7,72.1,29.34,SSE,159,0.0,0.0,83,0.00,,,0.00,Wunderground v.1.15,2013-07-23 03:59:00,
2013-07-22 23:01:00,77.8,-99.9,29.34,SSE,159,0.0,0.0,255,0.00,,,0.00,Wunderground v.1.15,2013-07-23 04:01:00,
2013-07-22 23:06:00,77.4,71.8,29.34,SSE,159,0.0,0.0,83,0.00,,,0.00,Wunderground v.1.15,2013-07-23 04:06:00,
2013-07-22 23:11:00,77.0,71.8,29.34,SSE,159,0.0,0.0,84,0.00,,,0.00,Wunderground v.1.15,2013-07-23 04:11:00,
2013-07-22 23:16:00,76.7,71.5,29.34,SSE,159,0.0,0.0,84,0.00,,,0.00,Wunderground v.1.15,2013-07-23 04:16:00,
2013-07-22 23:21:00,76.6,71.7,29.34,SSE,159,0.0,0.0,85,0.00,,,0.00,Wunderground v.1.15,2013-07-23 04:21:00,
2013-07-22 23:26:00,76.4,71.9,29.34,SSE,159,0.0,0.0,86,0.00,,,0.00,Wunderground v.1.15,2013-07-23 04:26:00,
2013-07-22 23:31:00,76.3,72.1,29.33,SSE,159,0.0,0.0,87,0.00,,,0.00,Wunderground v.1.15,2013-07-23 04:31:00,
2013-07-22 23:36:00,76.2,72.4,29.33,SSE,159,0.0,0.0,88,0.00,,,0.00,Wunderground v.1.15,2013-07-23 04:36:00,
2013-07-22 23:41:00,76.2,72.4,29.33,SSE,159,0.0,0.0,88,0.00,,,0.00,Wunderground v.1.15,2013-07-23 04:41:00,
2013-07-22 23:46:00,76.2,72.7,29.33,SSE,159,0.0,0.0,89,0.00,,,0.00,Wunderground v.1.15,2013-07-23 04:46:00,
2013-07-22 23:51:00,76.3,72.8,29.33,SSE,159,0.0,0.0,89,0.00,,,0.00,Wunderground v.1.15,2013-07-23 04:51:00,
2013-07-22 23:56:00,76.4,72.9,29.34,SSE,159,0.0,0.0,89,0.00,,,0.00,Wunderground v.1.15,2013-07-23 04:56:00,